createdAt,value
2019-05-22T00:01:38.209Z,11.20
2019-05-22T00:04:15.510Z,11.20
2019-05-22T00:06:45.914Z,11.10
2019-05-22T00:09:23.900Z,11.10
2019-05-22T00:11:53.703Z,11.10
2019-05-22T00:14:24.752Z,11.10
2019-05-22T00:16:54.469Z,11.10
2019-05-22T00:19:24.311Z,11.10
2019-05-22T00:21:55.553Z,11.10
2019-05-22T00:24:25.137Z,11.10
2019-05-22T00:26:55.766Z,11.20
2019-05-22T00:29:25.228Z,11.20
2019-05-22T00:31:55.876Z,11.20
2019-05-22T00:34:26.083Z,11.20
2019-05-22T00:36:56.753Z,11.20
2019-05-22T00:39:27.824Z,11.20
2019-05-22T00:41:57.214Z,11.20
2019-05-22T00:44:29.263Z,11.20
2019-05-22T00:47:00.544Z,11.10
2019-05-22T00:49:30.525Z,11.10
2019-05-22T00:52:19.159Z,11.10
2019-05-22T00:54:54.213Z,11.10
2019-05-22T00:57:29.507Z,11.10
2019-05-22T01:00:03.827Z,11.10
2019-05-22T01:02:35.847Z,11.10
2019-05-22T01:05:05.943Z,11.10
2019-05-22T01:07:40.273Z,11.10
2019-05-22T01:10:11.655Z,11.10
2019-05-22T01:12:43.351Z,11.10
2019-05-22T01:15:15.218Z,11.10
2019-05-22T01:17:46.764Z,11.10
2019-05-22T01:20:17.945Z,11.10
2019-05-22T01:22:49.147Z,11.10
2019-05-22T01:25:20.778Z,11.10
2019-05-22T01:27:50.313Z,11.10
2019-05-22T01:30:39.913Z,11.10
2019-05-22T01:33:23.767Z,11.10
2019-05-22T01:36:03.468Z,11.10
2019-05-22T01:38:34.764Z,11.10
2019-05-22T01:41:14.543Z,11.10
2019-05-22T01:43:44.080Z,11.10
2019-05-22T01:46:15.752Z,11.10
2019-05-22T01:48:46.066Z,11.10
2019-05-22T01:51:16.458Z,11.10
2019-05-22T01:53:46.731Z,11.10
2019-05-22T01:56:18.079Z,11.10
2019-05-22T01:58:48.015Z,11.10
2019-05-22T02:01:19.028Z,11.10
2019-05-22T02:03:48.590Z,11.00
2019-05-22T02:06:19.553Z,11.10
2019-05-22T02:08:53.345Z,11.10
2019-05-22T02:11:23.430Z,11.10
2019-05-22T02:13:56.759Z,11.10
2019-05-22T02:16:27.656Z,11.10
2019-05-22T02:18:57.469Z,11.10
2019-05-22T02:21:28.181Z,11.10
2019-05-22T02:23:58.235Z,11.10
2019-05-22T02:26:29.066Z,11.10
2019-05-22T02:29:00.177Z,11.10
2019-05-22T02:31:30.486Z,11.10
2019-05-22T02:34:02.668Z,11.10
2019-05-22T02:36:34.084Z,11.10
2019-05-22T02:39:05.159Z,11.10
2019-05-22T02:41:46.575Z,11.10
2019-05-22T02:44:17.400Z,11.10
2019-05-22T02:46:47.476Z,11.10
2019-05-22T02:49:18.266Z,11.10
2019-05-22T02:51:48.688Z,11.10
2019-05-22T02:54:18.361Z,11.10
2019-05-22T02:56:48.065Z,11.10
2019-05-22T02:59:18.098Z,11.10
2019-05-22T03:01:48.198Z,11.10
2019-05-22T03:04:19.525Z,11.10
2019-05-22T03:06:50.217Z,11.10
2019-05-22T03:09:24.584Z,11.10
2019-05-22T03:12:01.058Z,11.00
2019-05-22T03:14:32.235Z,11.10
2019-05-22T03:17:04.162Z,11.10
2019-05-22T03:19:44.870Z,11.10
2019-05-22T03:22:20.749Z,11.10
2019-05-22T03:24:51.501Z,11.10
2019-05-22T03:27:24.493Z,11.10
2019-05-22T03:29:55.299Z,11.10
2019-05-22T03:32:25.462Z,11.00
2019-05-22T03:34:55.082Z,11.00
2019-05-22T03:37:25.369Z,11.00
2019-05-22T03:39:55.102Z,11.00
2019-05-22T03:42:24.560Z,11.00
2019-05-22T03:44:55.774Z,11.00
2019-05-22T03:47:25.504Z,11.00
2019-05-22T03:49:55.263Z,11.00
2019-05-22T03:52:25.396Z,11.00
2019-05-22T03:54:55.880Z,11.00
2019-05-22T03:57:25.615Z,11.00
2019-05-22T03:59:55.214Z,11.00
2019-05-22T04:02:24.682Z,11.00
2019-05-22T04:04:54.821Z,11.10
2019-05-22T04:07:24.291Z,11.10
2019-05-22T04:09:55.333Z,11.10
2019-05-22T04:12:24.787Z,11.10
2019-05-22T04:14:54.622Z,11.10
2019-05-22T04:17:25.419Z,11.10
2019-05-22T04:19:55.780Z,11.10
2019-05-22T04:22:25.513Z,11.10
2019-05-22T04:24:55.196Z,11.10
2019-05-22T04:27:25.183Z,11.10
2019-05-22T04:29:55.875Z,11.10
2019-05-22T04:32:29.762Z,11.10
2019-05-22T04:34:59.446Z,11.10
2019-05-22T04:37:29.457Z,11.10
2019-05-22T04:40:25.867Z,11.10
2019-05-22T04:42:56.272Z,11.10
2019-05-22T04:45:26.787Z,11.10
2019-05-22T04:48:01.258Z,11.10
2019-05-22T04:50:30.971Z,11.10
2019-05-22T04:53:01.336Z,11.10
2019-05-22T04:55:31.199Z,11.10
2019-05-22T04:58:11.175Z,11.10
2019-05-22T05:00:41.032Z,11.10
2019-05-22T05:03:11.844Z,11.10
2019-05-22T05:05:45.821Z,11.20
2019-05-22T05:08:15.354Z,11.10
2019-05-22T05:10:47.709Z,11.10
2019-05-22T05:13:17.574Z,11.10
2019-05-22T05:15:47.256Z,11.10
2019-05-22T05:18:16.799Z,11.10
2019-05-22T05:20:46.456Z,11.10
2019-05-22T05:23:16.278Z,11.10
2019-05-22T05:25:46.398Z,11.20
2019-05-22T05:28:15.936Z,11.20
2019-05-22T05:30:45.407Z,11.20
2019-05-22T05:33:15.539Z,11.20
2019-05-22T05:35:45.280Z,11.20
2019-05-22T05:38:15.709Z,11.30
2019-05-22T05:40:46.349Z,11.30
2019-05-22T05:43:15.883Z,11.30
2019-05-22T05:45:48.430Z,11.30
2019-05-22T05:48:19.824Z,11.30
2019-05-22T05:51:08.493Z,11.30
2019-05-22T05:54:10.693Z,11.40
2019-05-22T05:56:41.332Z,11.30
2019-05-22T05:59:12.356Z,11.30
2019-05-22T06:01:43.750Z,11.30
2019-05-22T06:04:13.336Z,11.40
2019-05-22T06:06:46.089Z,11.40
2019-05-22T06:09:19.993Z,11.50
2019-05-22T06:11:53.822Z,11.50
2019-05-22T06:14:29.677Z,11.40
2019-05-22T06:17:38.699Z,11.50
2019-05-22T06:20:11.817Z,11.50
2019-05-22T06:22:42.700Z,11.50
2019-05-22T06:25:12.465Z,11.50
2019-05-22T06:27:43.633Z,11.50
2019-05-22T06:30:16.543Z,11.50
2019-05-22T06:33:10.281Z,11.50
2019-05-22T06:35:40.371Z,11.60
2019-05-22T06:38:28.010Z,11.60
2019-05-22T06:40:57.559Z,11.60
2019-05-22T06:43:32.120Z,11.70
2019-05-22T06:46:01.663Z,11.70
2019-05-22T06:48:31.394Z,11.70
2019-05-22T06:51:01.356Z,11.70
2019-05-22T06:53:30.767Z,11.70
2019-05-22T06:56:00.349Z,11.70
2019-05-22T06:58:29.873Z,11.80
2019-05-22T07:00:59.439Z,11.70
2019-05-22T07:03:28.887Z,11.80
2019-05-22T07:05:58.604Z,11.70
2019-05-22T07:08:28.743Z,11.80
2019-05-22T07:10:58.753Z,11.80
2019-05-22T07:13:29.805Z,11.80
2019-05-22T07:16:00.509Z,11.80
2019-05-22T07:18:31.944Z,11.80
2019-05-22T07:21:01.444Z,11.80
2019-05-22T07:23:32.098Z,11.80
2019-05-22T07:26:02.247Z,11.80
2019-05-22T07:28:32.123Z,11.90
2019-05-22T07:31:02.366Z,11.90
2019-05-22T07:33:32.722Z,11.90
2019-05-22T07:36:09.958Z,11.90
2019-05-22T07:38:34.653Z,11.90
2019-05-22T07:41:06.001Z,11.90
2019-05-22T07:43:35.524Z,11.90
2019-05-22T07:46:05.042Z,12.00
2019-05-22T07:48:34.671Z,12.00
2019-05-22T07:51:05.934Z,12.10
2019-05-22T07:53:35.598Z,12.10
2019-05-22T07:56:08.633Z,12.20
2019-05-22T07:58:38.583Z,12.20
2019-05-22T08:01:07.979Z,12.20
2019-05-22T08:03:38.256Z,12.20
2019-05-22T08:06:08.469Z,12.30
2019-05-22T08:08:38.420Z,12.30
2019-05-22T08:11:09.612Z,12.30
2019-05-22T08:13:39.751Z,12.40
2019-05-22T08:16:09.780Z,12.40
2019-05-22T08:18:39.633Z,12.50
2019-05-22T08:21:09.441Z,12.60
2019-05-22T08:23:39.871Z,12.80
2019-05-22T08:26:11.149Z,12.90
2019-05-22T08:28:40.672Z,12.90
2019-05-22T08:31:10.901Z,13.00
2019-05-22T08:33:40.684Z,13.10
2019-05-22T08:36:10.175Z,13.00
2019-05-22T08:38:40.236Z,13.10
2019-05-22T08:41:10.937Z,13.10
2019-05-22T08:44:11.536Z,13.10
2019-05-22T08:46:13.807Z,13.20
2019-05-22T08:48:48.021Z,13.20
2019-05-22T08:51:15.941Z,13.20
2019-05-22T08:53:48.085Z,13.10
2019-05-22T08:56:16.908Z,13.00
2019-05-22T08:58:47.656Z,13.00
2019-05-22T09:01:17.459Z,13.00
2019-05-22T09:03:47.395Z,13.00
2019-05-22T09:06:16.952Z,13.10
2019-05-22T09:08:46.914Z,13.20
2019-05-22T09:11:16.611Z,13.30
2019-05-22T09:13:47.790Z,13.30
2019-05-22T09:16:18.105Z,13.40
2019-05-22T09:18:47.621Z,13.60
2019-05-22T09:21:17.402Z,13.60
2019-05-22T09:23:47.388Z,13.70
2019-05-22T09:26:18.781Z,13.80
2019-05-22T09:28:48.494Z,13.90
2019-05-22T09:31:18.306Z,13.90
2019-05-22T09:33:48.141Z,13.80
2019-05-22T09:36:17.739Z,13.70
2019-05-22T09:38:47.312Z,13.70
2019-05-22T09:41:17.237Z,13.70
2019-05-22T09:43:46.997Z,13.70
2019-05-22T09:46:18.025Z,13.60
2019-05-22T09:48:48.016Z,13.50
2019-05-22T09:51:17.663Z,13.40
2019-05-22T09:53:48.111Z,13.30
2019-05-22T09:56:18.168Z,13.20
2019-05-22T09:58:48.008Z,13.20
2019-05-22T10:01:17.995Z,13.30
2019-05-22T10:03:48.100Z,13.30
2019-05-22T10:06:17.762Z,13.30
2019-05-22T10:08:47.239Z,13.40
2019-05-22T10:11:17.066Z,13.40
2019-05-22T10:13:46.979Z,13.50
2019-05-22T10:16:17.021Z,13.60
2019-05-22T10:18:46.906Z,13.70
2019-05-22T10:21:17.368Z,13.80
2019-05-22T10:23:47.123Z,13.80
2019-05-22T10:26:16.963Z,13.80
2019-05-22T10:28:50.468Z,13.90
2019-05-22T10:31:21.782Z,14.00
2019-05-22T10:33:52.093Z,14.10
2019-05-22T10:36:21.983Z,14.10
2019-05-22T10:38:51.417Z,14.10
2019-05-22T10:41:21.140Z,14.20
2019-05-22T10:43:51.377Z,14.20
2019-05-22T10:46:20.815Z,14.20
2019-05-22T10:48:50.659Z,14.30
2019-05-22T10:51:20.200Z,14.40
2019-05-22T10:53:49.875Z,14.60
2019-05-22T10:56:19.336Z,14.80
2019-05-22T10:58:48.823Z,14.90
2019-05-22T11:01:19.560Z,15.00
2019-05-22T11:03:49.756Z,15.10
2019-05-22T11:06:19.642Z,15.20
2019-05-22T11:08:49.121Z,15.20
2019-05-22T11:11:18.773Z,15.50
2019-05-22T11:14:00.782Z,15.60
2019-05-22T11:16:19.411Z,15.40
2019-05-22T11:18:49.003Z,15.20
2019-05-22T11:21:18.452Z,15.10
2019-05-22T11:23:52.641Z,14.90
2019-05-22T11:26:19.076Z,14.80
2019-05-22T11:28:49.396Z,14.80
2019-05-22T11:31:18.848Z,14.70
2019-05-22T11:33:48.886Z,14.80
2019-05-22T11:36:18.605Z,14.80
2019-05-22T11:38:48.122Z,14.80
2019-05-22T11:41:18.044Z,14.70
2019-05-22T11:43:47.807Z,14.70
2019-05-22T11:46:17.346Z,14.70
2019-05-22T11:48:47.155Z,14.80
2019-05-22T11:51:16.976Z,15.90
2019-05-22T11:53:46.862Z,14.80
2019-05-22T11:56:16.241Z,14.90
2019-05-22T11:58:45.950Z,15.00
2019-05-22T12:01:15.477Z,15.00
2019-05-22T12:03:45.111Z,14.90
2019-05-22T12:06:15.158Z,14.90
2019-05-22T12:08:45.592Z,14.80
2019-05-22T12:11:16.220Z,14.80
2019-05-22T12:13:46.181Z,14.70
2019-05-22T12:16:16.029Z,14.70
2019-05-22T12:18:45.417Z,14.70
2019-05-22T12:21:15.119Z,14.60
2019-05-22T12:23:44.995Z,14.50
2019-05-22T12:26:14.575Z,14.40
2019-05-22T12:28:44.185Z,14.40
2019-05-22T12:31:14.501Z,14.50
2019-05-22T12:33:44.089Z,14.50
2019-05-22T12:36:14.129Z,14.60
2019-05-22T12:38:44.309Z,14.60
2019-05-22T12:41:14.386Z,14.60
2019-05-22T12:43:44.917Z,14.70
2019-05-22T12:46:15.075Z,14.60
2019-05-22T12:48:45.219Z,14.60
2019-05-22T12:51:15.188Z,14.60
2019-05-22T12:53:45.084Z,14.70
2019-05-22T12:56:14.508Z,14.80
2019-05-22T12:58:44.336Z,14.90
2019-05-22T13:01:14.693Z,14.90
2019-05-22T13:03:44.890Z,15.00
2019-05-22T13:06:14.383Z,15.00
2019-05-22T13:08:44.055Z,15.10
2019-05-22T13:11:13.587Z,15.10
2019-05-22T13:13:43.380Z,15.20
2019-05-22T13:16:12.948Z,15.20
2019-05-22T13:18:42.401Z,15.30
2019-05-22T13:21:12.359Z,15.30
2019-05-22T13:23:44.139Z,15.30
2019-05-22T13:26:13.975Z,15.40
2019-05-22T13:28:44.853Z,15.50
2019-05-22T13:31:14.870Z,15.50
2019-05-22T13:33:45.405Z,15.60
2019-05-22T13:36:15.654Z,15.60
2019-05-22T13:38:45.359Z,15.60
2019-05-22T13:41:15.725Z,15.50
2019-05-22T13:43:45.248Z,15.40
2019-05-22T13:46:15.478Z,15.40
2019-05-22T13:48:45.199Z,15.40
2019-05-22T13:51:15.511Z,15.40
2019-05-22T13:53:45.319Z,15.40
2019-05-22T13:56:15.135Z,15.40
2019-05-22T13:58:45.392Z,15.30
2019-05-22T14:01:15.208Z,15.30
2019-05-22T14:03:44.651Z,15.30
2019-05-22T14:06:14.161Z,15.20
2019-05-22T14:08:43.771Z,15.30
2019-05-22T14:11:13.304Z,15.30
2019-05-22T14:13:43.477Z,15.30
2019-05-22T14:16:13.699Z,15.30
2019-05-22T14:18:43.214Z,15.30
2019-05-22T14:21:13.018Z,15.30
2019-05-22T14:23:42.473Z,15.40
2019-05-22T14:26:12.030Z,15.40
2019-05-22T14:28:41.793Z,15.40
2019-05-22T14:31:11.415Z,15.40
2019-05-22T14:33:41.221Z,15.30
2019-05-22T14:36:11.542Z,15.20
2019-05-22T14:38:46.568Z,15.30
2019-05-22T14:41:16.171Z,15.40
2019-05-22T14:43:46.365Z,15.60
2019-05-22T14:46:16.088Z,15.70
2019-05-22T14:48:45.565Z,15.70
2019-05-22T14:51:15.169Z,15.60
2019-05-22T14:53:45.598Z,15.60
2019-05-22T14:56:15.130Z,15.40
2019-05-22T14:58:44.609Z,15.40
2019-05-22T15:01:14.761Z,15.40
2019-05-22T15:03:45.127Z,15.30
2019-05-22T15:06:15.216Z,15.30
2019-05-22T15:08:44.679Z,15.30
2019-05-22T15:11:15.279Z,15.40
2019-05-22T15:13:45.104Z,15.40
2019-05-22T15:16:14.643Z,15.40
2019-05-22T15:18:44.523Z,15.40
2019-05-22T15:21:16.745Z,15.40
2019-05-22T15:23:46.876Z,15.50
2019-05-22T15:26:16.834Z,15.70
2019-05-22T15:28:46.553Z,15.80
2019-05-22T15:31:17.801Z,15.90
2019-05-22T15:33:47.503Z,16.00
2019-05-22T15:36:18.871Z,15.80
2019-05-22T15:38:48.579Z,15.80
2019-05-22T15:41:18.302Z,15.80
2019-05-22T15:43:52.059Z,15.70
2019-05-22T15:46:19.951Z,15.60
2019-05-22T15:48:49.835Z,15.50
2019-05-22T15:51:22.846Z,15.40
2019-05-22T15:53:55.435Z,15.40
2019-05-22T15:56:31.004Z,15.40
2019-05-22T15:59:01.348Z,15.40
2019-05-22T16:01:30.880Z,15.50
2019-05-22T16:04:00.416Z,15.60
2019-05-22T16:06:30.007Z,15.60
2019-05-22T16:08:59.623Z,15.60
2019-05-22T16:11:29.944Z,15.50
2019-05-22T16:13:59.685Z,15.40
2019-05-22T16:16:31.235Z,15.20
2019-05-22T16:19:03.242Z,15.10
2019-05-22T16:21:33.426Z,15.10
2019-05-22T16:24:03.194Z,14.90
2019-05-22T16:26:32.726Z,14.80
2019-05-22T16:29:02.467Z,14.80
2019-05-22T16:31:32.692Z,14.80
2019-05-22T16:34:02.786Z,14.80
2019-05-22T16:36:33.239Z,14.90
2019-05-22T16:39:03.319Z,15.00
2019-05-22T16:41:33.137Z,15.10
2019-05-22T16:44:02.656Z,15.00
2019-05-22T16:46:33.639Z,15.00
2019-05-22T16:49:03.723Z,15.00
2019-05-22T16:51:33.381Z,14.90
2019-05-22T16:54:05.194Z,14.90
2019-05-22T16:56:35.633Z,14.90
2019-05-22T16:59:08.731Z,14.90
2019-05-22T17:01:56.925Z,14.90
2019-05-22T17:04:09.617Z,14.90
2019-05-22T17:06:40.309Z,14.90
2019-05-22T17:09:11.386Z,14.90
2019-05-22T17:11:41.170Z,14.80
2019-05-22T17:14:11.990Z,14.80
2019-05-22T17:16:43.179Z,14.90
2019-05-22T17:19:26.286Z,14.90
2019-05-22T17:21:44.749Z,14.90
2019-05-22T17:24:15.064Z,15.00
2019-05-22T17:26:44.800Z,15.00
2019-05-22T17:29:14.788Z,15.00
2019-05-22T17:31:44.875Z,15.00
2019-05-22T17:34:33.057Z,14.90
2019-05-22T17:37:06.256Z,14.90
2019-05-22T17:39:36.625Z,14.90
2019-05-22T17:42:07.943Z,14.80
2019-05-22T17:44:38.316Z,14.80
2019-05-22T17:47:09.134Z,14.80
2019-05-22T17:49:38.959Z,14.70
2019-05-22T17:52:12.012Z,14.70
2019-05-22T17:54:40.213Z,14.70
2019-05-22T17:57:10.528Z,14.60
2019-05-22T17:59:40.143Z,14.60
2019-05-22T18:02:11.319Z,14.50
2019-05-22T18:04:41.012Z,14.40
2019-05-22T18:07:10.717Z,14.30
2019-05-22T18:09:40.963Z,14.20
2019-05-22T18:12:11.013Z,14.20
2019-05-22T18:14:40.758Z,14.10
2019-05-22T18:17:11.044Z,14.10
2019-05-22T18:19:41.105Z,14.10
2019-05-22T18:22:12.287Z,14.10
2019-05-22T18:24:41.971Z,14.20
2019-05-22T18:27:11.687Z,14.20
2019-05-22T18:29:41.190Z,14.10
2019-05-22T18:32:11.427Z,14.10
2019-05-22T18:34:40.943Z,14.10
2019-05-22T18:37:11.209Z,14.10
2019-05-22T18:39:42.241Z,14.00
2019-05-22T18:42:12.057Z,14.10
2019-05-22T18:44:41.764Z,14.10
2019-05-22T18:47:11.768Z,14.00
2019-05-22T18:49:41.235Z,14.00
2019-05-22T18:52:11.439Z,13.90
2019-05-22T18:54:41.048Z,13.90
2019-05-22T18:57:10.813Z,13.90
2019-05-22T18:59:40.250Z,13.80
2019-05-22T19:02:09.732Z,13.80
2019-05-22T19:04:39.409Z,13.70
2019-05-22T19:07:08.959Z,13.70
2019-05-22T19:09:38.752Z,13.70
2019-05-22T19:12:08.362Z,13.70
2019-05-22T19:14:38.156Z,13.70
2019-05-22T19:17:07.844Z,13.70
2019-05-22T19:19:38.584Z,13.60
2019-05-22T19:22:14.779Z,13.60
2019-05-22T19:24:39.871Z,13.60
2019-05-22T19:27:09.444Z,13.60
2019-05-22T19:29:39.060Z,13.50
2019-05-22T19:32:08.746Z,13.50
2019-05-22T19:34:38.251Z,13.50
2019-05-22T19:37:07.735Z,13.50
2019-05-22T19:39:37.411Z,13.50
2019-05-22T19:42:07.871Z,13.40
2019-05-22T19:44:37.533Z,13.40
2019-05-22T19:47:08.705Z,13.40
2019-05-22T19:49:38.315Z,13.30
2019-05-22T19:52:08.535Z,13.30
2019-05-22T19:54:38.420Z,13.30
2019-05-22T19:57:09.165Z,13.30
2019-05-22T19:59:38.972Z,13.20
2019-05-22T20:02:10.451Z,13.20
2019-05-22T20:04:40.313Z,13.10
2019-05-22T20:07:11.095Z,13.10
2019-05-22T20:09:41.744Z,13.10
2019-05-22T20:12:13.170Z,13.00
2019-05-22T20:14:43.176Z,13.00
2019-05-22T20:17:12.905Z,12.90
2019-05-22T20:19:42.739Z,12.90
2019-05-22T20:22:12.477Z,12.90
2019-05-22T20:24:42.089Z,12.90
2019-05-22T20:27:11.902Z,12.90
2019-05-22T20:29:41.419Z,12.80
2019-05-22T20:32:11.956Z,12.80
2019-05-22T20:34:41.740Z,12.80
2019-05-22T20:37:11.347Z,12.10
2019-05-22T20:39:41.054Z,12.70
2019-05-22T20:42:13.974Z,12.60
2019-05-22T20:44:44.072Z,12.60
2019-05-22T20:47:13.924Z,12.60
2019-05-22T20:49:44.890Z,12.50
2019-05-22T20:52:14.456Z,12.60
2019-05-22T20:54:45.106Z,12.50
2019-05-22T20:57:19.612Z,12.50
2019-05-22T20:59:47.721Z,12.50
2019-05-22T21:02:18.590Z,12.40
2019-05-22T21:04:50.159Z,12.40
2019-05-22T21:07:26.505Z,12.40
2019-05-22T21:09:56.505Z,12.40
2019-05-22T21:12:26.503Z,12.30
2019-05-22T21:14:56.483Z,12.80
2019-05-22T21:17:26.368Z,12.30
2019-05-22T21:19:55.995Z,12.20
2019-05-22T21:22:25.626Z,12.20
2019-05-22T21:24:55.411Z,12.20
2019-05-22T21:27:24.889Z,12.10
2019-05-22T21:29:54.471Z,12.10
2019-05-22T21:32:24.308Z,12.10
2019-05-22T21:34:54.291Z,12.10
2019-05-22T21:37:24.165Z,12.10
2019-05-22T21:39:54.647Z,12.10
2019-05-22T21:42:25.823Z,12.00
2019-05-22T21:44:55.556Z,12.00
2019-05-22T21:47:25.610Z,12.00
2019-05-22T21:49:55.437Z,12.00
2019-05-22T21:52:26.660Z,12.00
2019-05-22T21:54:56.836Z,11.90
2019-05-22T21:57:26.348Z,11.90
2019-05-22T21:59:56.055Z,11.90
2019-05-22T22:02:30.395Z,11.90
2019-05-22T22:05:00.475Z,10.40
2019-05-22T22:07:30.621Z,11.80
2019-05-22T22:10:00.584Z,11.80
2019-05-22T22:12:30.958Z,11.80
2019-05-22T22:15:00.979Z,11.80
2019-05-22T22:17:30.780Z,11.70
2019-05-22T22:20:01.323Z,11.70
2019-05-22T22:22:31.529Z,11.70
2019-05-22T22:25:01.826Z,11.70
2019-05-22T22:27:31.432Z,11.70
2019-05-22T22:30:02.895Z,11.70
2019-05-22T22:32:33.935Z,11.60
2019-05-22T22:35:03.877Z,11.60
2019-05-22T22:37:34.065Z,11.60
2019-05-22T22:40:04.736Z,11.60
2019-05-22T22:42:36.916Z,11.60
2019-05-22T22:45:09.295Z,11.60
2019-05-22T22:47:42.716Z,11.60
2019-05-22T22:50:13.711Z,11.60
2019-05-22T22:52:43.238Z,11.60
2019-05-22T22:55:13.082Z,11.60
2019-05-22T22:57:43.649Z,11.50
2019-05-22T23:00:15.334Z,11.50
2019-05-22T23:02:46.732Z,11.50
2019-05-22T23:05:16.739Z,11.50
2019-05-22T23:07:47.557Z,11.40
2019-05-22T23:10:17.633Z,11.40
2019-05-22T23:12:47.431Z,11.40
2019-05-22T23:15:18.485Z,11.30
2019-05-22T23:17:48.418Z,11.30
2019-05-22T23:20:17.290Z,11.30
2019-05-22T23:23:07.073Z,11.30
2019-05-22T23:25:37.440Z,11.30
2019-05-22T23:28:08.305Z,11.30
2019-05-22T23:30:38.199Z,11.30
2019-05-22T23:33:07.671Z,11.30
2019-05-22T23:35:37.253Z,11.30
2019-05-22T23:38:07.421Z,11.30
2019-05-22T23:40:37.518Z,11.20
2019-05-22T23:43:07.464Z,11.20
2019-05-22T23:45:37.467Z,11.20
2019-05-22T23:48:16.126Z,11.20
2019-05-22T23:50:47.245Z,11.20
2019-05-22T23:53:16.741Z,11.10
2019-05-22T23:55:46.335Z,11.10
2019-05-22T23:58:17.733Z,11.10
